Time;durP1;ratioP1;P1;durP2;ratioP2;P2;SDS_P1;SDS_P2;PMS_P1;PMS_P2;Temp;Humidity;BMP_temperature;BMP_pressure;BME280_temperature;BME280_humidity;BME280_pressure;Samples;Min_cycle;Max_cycle;Signal;HPM_P1;HPM_P2
2022/09/27 00:01:15;;;;;;;8.57;3.83;;;11.40;99.90;;;;;;5054131;28;20210;-63
2022/09/27 00:03:41;;;;;;;13.23;4.30;;;11.40;99.90;;;;;;5053912;28;20583;-63
2022/09/27 00:06:17;;;;;;;9.23;4.20;;;11.30;99.90;;;;;;5053963;28;20211;-63
2022/09/27 00:08:43;;;;;;;8.40;3.78;;;11.30;99.90;;;;;;5054017;28;20567;-63
2022/09/27 00:11:32;;;;;;;7.55;3.65;;;11.30;99.90;;;;;;5054045;28;20210;-63
2022/09/27 00:13:59;;;;;;;12.32;3.40;;;11.20;99.90;;;;;;5053723;28;20190;-63
2022/09/27 00:16:30;;;;;;;5.88;3.22;;;11.20;99.90;;;;;;5052971;28;20183;-63
2022/09/27 00:19:01;;;;;;;11.52;3.15;;;11.20;99.90;;;;;;5052922;28;20174;-63
2022/09/27 00:21:29;;;;;;;6.22;2.70;;;11.20;99.90;;;;;;5053348;28;20708;-63
2022/09/27 00:23:58;;;;;;;6.57;2.45;;;11.10;99.90;;;;;;5052892;28;20214;-63
2022/09/27 00:26:24;;;;;;;7.15;2.70;;;11.20;99.90;;;;;;5052956;28;20179;-63
2022/09/27 00:28:50;;;;;;;7.10;2.63;;;11.20;99.90;;;;;;5052721;28;20540;-63
2022/09/27 00:31:25;;;;;;;5.57;2.10;;;11.20;99.90;;;;;;5051530;28;20175;-63
2022/09/27 00:33:52;;;;;;;6.80;1.88;;;11.30;99.90;;;;;;5052680;28;20762;-63
2022/09/27 00:36:19;;;;;;;6.50;1.60;;;11.20;99.90;;;;;;5053147;28;20259;-63
2022/09/27 00:38:46;;;;;;;5.05;1.33;;;11.10;99.90;;;;;;5052727;28;20175;-63
2022/09/27 00:41:18;;;;;;;3.47;1.38;;;11.10;99.90;;;;;;5053057;28;20180;-63
2022/09/27 00:43:57;;;;;;;6.07;1.33;;;10.90;99.90;;;;;;5051175;28;20171;-63
2022/09/27 00:46:45;;;;;;;4.00;1.35;;;11.00;99.90;;;;;;5052912;28;20179;-63
2022/09/27 00:49:25;;;;;;;8.10;1.67;;;11.00;99.90;;;;;;5052501;28;20598;-63
2022/09/27 00:51:55;;;;;;;8.02;1.50;;;11.00;99.90;;;;;;5052661;28;20181;-63
2022/09/27 00:54:23;;;;;;;8.30;1.40;;;11.10;99.90;;;;;;5052351;28;20254;-63
2022/09/27 00:56:50;;;;;;;5.10;1.42;;;11.10;99.90;;;;;;5052543;28;20652;-63
2022/09/27 00:59:24;;;;;;;5.07;1.30;;;11.00;99.90;;;;;;5052543;28;20233;-63
2022/09/27 01:01:50;;;;;;;6.07;1.42;;;11.00;99.90;;;;;;5052367;28;20171;-63
2022/09/27 01:04:23;;;;;;;8.60;1.67;;;11.00;99.90;;;;;;5051074;28;20203;-63
2022/09/27 01:06:50;;;;;;;7.68;1.35;;;11.00;99.90;;;;;;5050976;28;20232;-63
2022/09/27 01:09:16;;;;;;;6.38;1.63;;;11.00;99.90;;;;;;5052468;28;20186;-63
2022/09/27 01:11:48;;;;;;;5.85;1.60;;;11.10;99.90;;;;;;5052167;28;20167;-63
2022/09/27 01:14:40;;;;;;;3.60;1.13;;;11.10;99.90;;;;;;5012658;28;1132700;-63
2022/09/27 01:17:25;;;;;;;4.63;1.10;;;11.00;99.90;;;;;;5052996;28;20171;-63
2022/09/27 01:20:19;;;;;;;6.38;1.27;;;11.00;99.90;;;;;;5053147;28;20195;-63
2022/09/27 01:23:09;;;;;;;2.15;0.90;;;10.90;99.90;;;;;;5053065;28;20577;-63
2022/09/27 01:25:44;;;;;;;4.47;0.98;;;11.00;99.90;;;;;;5052883;28;20203;-63
2022/09/27 01:28:21;;;;;;;4.57;1.13;;;11.00;99.90;;;;;;5052840;28;20256;-63
2022/09/27 01:30:53;;;;;;;6.18;1.05;;;11.00;99.90;;;;;;5053033;28;20167;-63
2022/09/27 01:33:51;;;;;;;3.13;0.82;;;10.90;99.90;;;;;;5052933;28;20164;-62
2022/09/27 01:36:30;;;;;;;3.05;0.80;;;10.90;99.90;;;;;;5052447;28;20189;-63
2022/09/27 01:39:04;;;;;;;3.92;0.60;;;10.70;99.90;;;;;;5052956;28;20178;-62
2022/09/27 01:41:47;;;;;;;3.53;0.88;;;10.70;99.90;;;;;;5052730;28;20170;-63
2022/09/27 01:44:57;;;;;;;4.28;0.80;;;10.70;99.90;;;;;;5052733;28;20211;-63
2022/09/27 01:47:31;;;;;;;1.30;0.60;;;10.50;99.90;;;;;;5044042;28;20726;-63
2022/09/27 01:50:09;;;;;;;2.15;0.50;;;10.50;99.90;;;;;;5052816;28;20167;-63
2022/09/27 01:52:49;;;;;;;3.95;0.70;;;10.40;99.90;;;;;;5052561;28;20221;-63
2022/09/27 01:55:19;;;;;;;3.50;0.80;;;10.40;99.90;;;;;;5051698;28;20194;-63
2022/09/27 01:58:18;;;;;;;1.00;0.70;;;10.40;99.90;;;;;;5052705;28;20167;-63
2022/09/27 02:00:47;;;;;;;2.55;0.60;;;10.50;99.90;;;;;;5050886;28;20262;-62
2022/09/27 02:03:19;;;;;;;1.77;0.50;;;10.50;99.90;;;;;;5052489;28;20168;-63
2022/09/27 02:06:07;;;;;;;2.17;0.63;;;10.50;99.90;;;;;;5052689;28;20203;-63
2022/09/27 02:08:54;;;;;;;2.08;0.60;;;10.50;99.90;;;;;;5052664;28;20581;-63
2022/09/27 02:11:20;;;;;;;3.13;0.52;;;10.50;99.90;;;;;;5052486;28;20250;-63
2022/09/27 02:14:10;;;;;;;1.65;0.55;;;10.40;99.90;;;;;;5051289;28;20168;-63
2022/09/27 02:16:53;;;;;;;1.20;0.50;;;10.40;99.90;;;;;;5055690;28;20183;-63
2022/09/27 02:19:48;;;;;;;1.38;0.40;;;10.30;99.90;;;;;;5054847;28;20703;-63
2022/09/27 02:22:17;;;;;;;1.92;0.47;;;10.40;99.90;;;;;;5055955;28;20191;-63
2022/09/27 02:24:50;;;;;;;1.00;0.50;;;10.40;99.90;;;;;;5055797;28;20206;-63
2022/09/27 02:27:26;;;;;;;2.78;0.52;;;10.40;99.90;;;;;;5056073;28;20175;-63
2022/09/27 02:30:10;;;;;;;2.22;0.40;;;10.30;99.90;;;;;;5054642;28;20197;-63
2022/09/27 02:32:37;;;;;;;0.60;0.47;;;10.30;99.90;;;;;;5055717;28;20620;-63
2022/09/27 02:35:33;;;;;;;0.70;0.40;;;10.20;99.90;;;;;;5056147;28;20201;-63
2022/09/27 02:38:01;;;;;;;1.27;0.43;;;10.20;99.90;;;;;;5055038;28;20211;-63
2022/09/27 02:40:32;;;;;;;1.80;0.52;;;10.20;99.90;;;;;;5055580;28;20175;-63
2022/09/27 02:42:59;;;;;;;0.88;0.40;;;10.20;99.90;;;;;;5055761;28;20533;-63
2022/09/27 02:45:30;;;;;;;3.13;0.40;;;10.20;99.90;;;;;;5055693;28;20290;-63
2022/09/27 02:48:25;;;;;;;2.03;0.60;;;10.20;99.90;;;;;;5055662;28;20171;-63
2022/09/27 02:51:26;;;;;;;1.20;0.40;;;10.10;99.90;;;;;;5055472;28;20168;-63
2022/09/27 02:54:17;;;;;;;2.05;0.52;;;10.20;99.90;;;;;;5044939;28;20213;-63
2022/09/27 02:57:20;;;;;;;2.35;0.63;;;10.30;99.90;;;;;;5055294;28;20213;-62
2022/09/27 02:59:51;;;;;;;2.47;0.60;;;10.30;99.90;;;;;;5055543;28;20164;-63
2022/09/27 03:02:36;;;;;;;1.35;0.38;;;10.30;99.90;;;;;;5055338;28;20179;-63
2022/09/27 03:05:08;;;;;;;0.98;0.50;;;10.30;99.90;;;;;;5055097;28;20210;-63
2022/09/27 03:07:34;;;;;;;3.03;0.75;;;10.20;99.90;;;;;;5055191;28;20168;-63
2022/09/27 03:10:00;;;;;;;2.20;0.65;;;10.20;99.90;;;;;;5055270;28;20167;-63
2022/09/27 03:12:26;;;;;;;2.33;0.60;;;10.20;99.90;;;;;;5055199;28;20197;-63
2022/09/27 03:14:55;;;;;;;3.20;0.73;;;10.30;99.90;;;;;;5054919;28;20198;-63
2022/09/27 03:17:21;;;;;;;1.70;0.57;;;10.30;99.90;;;;;;5054883;28;20250;-63
2022/09/27 03:19:47;;;;;;;2.13;0.77;;;10.20;99.90;;;;;;5053715;28;20179;-63
2022/09/27 03:22:13;;;;;;;2.20;0.60;;;10.30;99.90;;;;;;5055017;28;20190;-63
2022/09/27 03:24:39;;;;;;;2.05;0.68;;;10.30;99.90;;;;;;5054922;28;20207;-63
2022/09/27 03:27:05;;;;;;;4.60;0.82;;;10.30;99.90;;;;;;5053927;28;20310;-63
2022/09/27 03:29:31;;;;;;;2.33;0.80;;;10.30;99.90;;;;;;5054626;28;20514;-63
2022/09/27 03:31:57;;;;;;;2.15;0.70;;;10.20;99.90;;;;;;5054671;28;20183;-63
2022/09/27 03:34:23;;;;;;;2.78;1.00;;;10.20;99.90;;;;;;5053591;28;20183;-63
2022/09/27 03:36:49;;;;;;;5.35;0.82;;;10.10;99.90;;;;;;5054448;28;20211;-63
2022/09/27 03:39:14;;;;;;;4.85;0.90;;;10.10;99.90;;;;;;5053552;28;20207;-63
2022/09/27 03:41:40;;;;;;;2.50;0.70;;;10.10;99.90;;;;;;5054596;28;20171;-63
2022/09/27 03:44:06;;;;;;;3.20;1.00;;;10.10;99.90;;;;;;5054496;28;20207;-63
2022/09/27 03:46:32;;;;;;;3.28;0.80;;;10.00;99.90;;;;;;5054399;28;20167;-63
2022/09/27 03:48:57;;;;;;;4.78;1.23;;;10.10;99.90;;;;;;5054621;28;20179;-64
2022/09/27 03:51:23;;;;;;;2.72;1.20;;;10.10;99.90;;;;;;5054252;28;20171;-64
2022/09/27 03:53:48;;;;;;;2.63;1.55;;;10.10;99.90;;;;;;5052965;28;20185;-63
2022/09/27 03:56:14;;;;;;;2.88;1.48;;;9.80;99.90;;;;;;5054157;28;20171;-64
2022/09/27 03:58:40;;;;;;;4.93;1.67;;;9.90;99.90;;;;;;5054094;28;20202;-63
2022/09/27 04:01:05;;;;;;;4.22;1.83;;;10.00;99.90;;;;;;5053093;28;20226;-64
2022/09/27 04:03:31;;;;;;;3.50;1.95;;;10.00;99.90;;;;;;5054047;28;20632;-62
2022/09/27 04:05:59;;;;;;;4.10;2.30;;;10.00;99.90;;;;;;5053936;28;20707;-64
2022/09/27 04:08:25;;;;;;;9.52;2.60;;;10.00;99.90;;;;;;5054100;28;20285;-64
2022/09/27 04:10:51;;;;;;;4.25;2.30;;;9.90;99.90;;;;;;5054129;28;20179;-63
2022/09/27 04:13:16;;;;;;;4.57;2.30;;;9.90;99.90;;;;;;5054027;28;20175;-64
2022/09/27 04:15:42;;;;;;;4.43;2.88;;;9.90;99.90;;;;;;5053841;28;20273;-64
2022/09/27 04:18:08;;;;;;;5.05;2.78;;;9.80;99.90;;;;;;5052630;28;20174;-63
2022/09/27 04:20:35;;;;;;;6.63;2.72;;;9.80;99.90;;;;;;5053612;28;20175;-63
2022/09/27 04:23:01;;;;;;;4.40;2.70;;;9.90;99.90;;;;;;5052714;28;20171;-63
2022/09/27 04:25:31;;;;;;;6.43;2.75;;;10.00;99.90;;;;;;5053768;28;20222;-63
2022/09/27 04:27:57;;;;;;;3.50;2.63;;;9.90;99.90;;;;;;5053568;28;20194;-63
2022/09/27 04:30:25;;;;;;;4.55;2.80;;;9.90;99.90;;;;;;5053652;28;20180;-63
2022/09/27 04:32:50;;;;;;;4.25;2.60;;;9.90;99.90;;;;;;5053517;28;20667;-64
2022/09/27 04:38:00;;;;;;;3.90;3.08;;;10.00;99.90;;;;;;5053526;28;20206;-63
2022/09/27 04:40:26;;;;;;;3.90;2.70;;;10.00;99.90;;;;;;5053522;28;20265;-64
2022/09/27 04:42:55;;;;;;;4.03;2.58;;;10.10;99.90;;;;;;5053427;28;20572;-64
2022/09/27 04:45:21;;;;;;;6.28;2.55;;;10.10;99.90;;;;;;5053537;28;20676;-63
2022/09/27 04:47:48;;;;;;;4.22;2.83;;;10.10;99.90;;;;;;5053188;28;20275;-64
2022/09/27 04:50:24;;;;;;;4.82;2.72;;;10.10;99.90;;;;;;5053434;28;20179;-64
2022/09/27 04:52:52;;;;;;;5.68;3.00;;;10.10;99.90;;;;;;5052320;28;20258;-64
2022/09/27 04:55:21;;;;;;;7.93;3.50;;;10.10;99.90;;;;;;5053196;28;20282;-64
2022/09/27 04:57:48;;;;;;;5.28;3.08;;;10.20;99.90;;;;;;5053203;28;20217;-64
2022/09/27 05:00:14;;;;;;;3.45;3.15;;;10.30;99.90;;;;;;5051813;28;20221;-61
2022/09/27 05:02:44;;;;;;;4.30;3.40;;;10.30;99.90;;;;;;5053272;28;20182;-61
2022/09/27 05:05:10;;;;;;;3.72;3.00;;;10.20;99.90;;;;;;5053256;28;20568;-62
2022/09/27 05:07:37;;;;;;;3.20;2.90;;;10.20;99.90;;;;;;5053151;28;20174;-61
2022/09/27 05:10:03;;;;;;;5.18;3.40;;;10.20;99.90;;;;;;5051601;28;20263;-61
2022/09/27 05:12:28;;;;;;;4.47;3.40;;;10.30;99.90;;;;;;5053030;28;20585;-62
2022/09/27 05:14:54;;;;;;;4.90;3.00;;;10.30;99.90;;;;;;5052975;28;20244;-61
2022/09/27 05:17:21;;;;;;;5.60;3.50;;;10.40;99.90;;;;;;5053088;28;20171;-61
2022/09/27 05:19:47;;;;;;;5.80;3.25;;;10.40;99.90;;;;;;5052962;28;20262;-62
2022/09/27 05:22:13;;;;;;;4.47;3.95;;;10.40;99.90;;;;;;5053027;28;20174;-62
2022/09/27 05:24:40;;;;;;;4.20;3.80;;;10.40;99.90;;;;;;5051997;28;20222;-62
2022/09/27 05:27:08;;;;;;;5.95;4.13;;;10.40;99.90;;;;;;5052582;28;20183;-61
2022/09/27 05:29:34;;;;;;;5.05;3.50;;;10.40;99.90;;;;;;5053045;28;20163;-61
2022/09/27 05:32:01;;;;;;;4.25;3.65;;;10.40;99.90;;;;;;5051681;28;20178;-61
2022/09/27 05:34:27;;;;;;;6.05;3.80;;;10.10;99.90;;;;;;5052937;28;20257;-62
2022/09/27 05:36:52;;;;;;;5.70;3.67;;;10.30;99.90;;;;;;5051561;28;20226;-62
2022/09/27 05:39:18;;;;;;;8.57;3.67;;;10.20;99.90;;;;;;5051670;28;20179;-62
2022/09/27 05:41:45;;;;;;;7.32;3.80;;;10.10;99.90;;;;;;5051828;28;20176;-61
2022/09/27 05:44:12;;;;;;;4.03;3.33;;;10.20;99.90;;;;;;5051374;28;20293;-61
2022/09/27 05:46:38;;;;;;;8.35;3.80;;;10.10;99.90;;;;;;5052919;28;20175;-62
2022/09/27 05:49:04;;;;;;;4.30;3.90;;;10.10;99.90;;;;;;5052720;28;20203;-62
2022/09/27 05:51:30;;;;;;;8.07;3.83;;;10.10;99.90;;;;;;5055956;28;20222;-62
2022/09/27 05:53:55;;;;;;;4.97;3.63;;;10.20;99.90;;;;;;5055396;28;20179;-61
2022/09/27 05:56:21;;;;;;;5.28;3.63;;;10.10;99.90;;;;;;5055226;28;20172;-61
2022/09/27 05:58:47;;;;;;;6.50;3.75;;;10.10;99.90;;;;;;5056346;28;20168;-62
2022/09/27 06:01:13;;;;;;;5.90;3.47;;;10.00;99.90;;;;;;5056502;28;20183;-61
2022/09/27 06:03:39;;;;;;;7.38;3.45;;;9.90;99.90;;;;;;5055221;28;20171;-61
2022/09/27 06:06:06;;;;;;;4.82;3.28;;;10.00;99.90;;;;;;5056192;28;20217;-61
2022/09/27 06:08:33;;;;;;;6.63;3.40;;;10.00;99.90;;;;;;5056311;28;20171;-61
2022/09/27 06:11:07;;;;;;;6.38;3.83;;;9.90;99.90;;;;;;5056117;28;20637;-62
2022/09/27 06:13:35;;;;;;;7.13;3.45;;;9.90;99.90;;;;;;5056286;28;20174;-61
2022/09/27 06:16:02;;;;;;;4.60;3.17;;;9.90;99.90;;;;;;5055949;28;20194;-61
2022/09/27 06:18:28;;;;;;;5.15;3.53;;;10.00;99.90;;;;;;5054974;28;20179;-62
2022/09/27 06:20:54;;;;;;;4.00;3.22;;;9.90;99.90;;;;;;5056045;28;20184;-61
2022/09/27 06:23:21;;;;;;;4.00;3.45;;;10.00;99.90;;;;;;5055872;28;20219;-61
2022/09/27 06:25:48;;;;;;;4.63;3.45;;;10.00;99.90;;;;;;5055814;28;20604;-61
2022/09/27 06:28:15;;;;;;;4.82;3.50;;;9.90;99.90;;;;;;5056049;28;20258;-62
2022/09/27 06:30:43;;;;;;;8.35;3.67;;;10.00;99.90;;;;;;5055973;28;20174;-61
2022/09/27 06:33:11;;;;;;;5.35;3.67;;;9.90;99.90;;;;;;5055789;28;20636;-62
2022/09/27 06:35:38;;;;;;;4.65;3.95;;;10.00;99.90;;;;;;5055709;28;20175;-61
2022/09/27 06:38:07;;;;;;;5.90;3.97;;;10.00;99.90;;;;;;5055626;28;20683;-62
2022/09/27 06:40:33;;;;;;;5.97;3.70;;;10.10;99.90;;;;;;5054566;28;20221;-61
2022/09/27 06:43:08;;;;;;;4.15;3.63;;;10.10;99.90;;;;;;5054542;28;20583;-61
2022/09/27 06:45:34;;;;;;;4.57;3.92;;;10.20;99.90;;;;;;5055414;28;20219;-61
2022/09/27 06:48:01;;;;;;;6.28;3.90;;;10.20;99.90;;;;;;5055603;28;20166;-61
2022/09/27 06:50:32;;;;;;;5.35;3.63;;;10.30;99.90;;;;;;5055406;28;20266;-61
2022/09/27 06:52:58;;;;;;;5.10;3.97;;;10.30;99.90;;;;;;5054244;28;20171;-61
2022/09/27 06:55:24;;;;;;;9.18;3.95;;;10.40;99.90;;;;;;5055479;28;20180;-61
2022/09/27 07:00:38;;;;;;;7.18;4.03;;;10.60;99.90;;;;;;5055497;28;20599;-61
2022/09/27 07:03:03;;;;;;;5.82;3.78;;;10.60;99.90;;;;;;5055197;28;20172;-62
2022/09/27 07:05:30;;;;;;;5.50;3.75;;;10.50;99.90;;;;;;5053893;28;20207;-61
2022/09/27 07:07:56;;;;;;;7.43;3.88;;;10.50;99.90;;;;;;5055553;28;20224;-61
2022/09/27 07:10:27;;;;;;;5.38;3.97;;;10.50;99.90;;;;;;5055133;28;20585;-61
2022/09/27 07:12:54;;;;;;;4.72;3.90;;;10.80;99.90;;;;;;5054947;28;20535;-62
2022/09/27 07:15:20;;;;;;;5.63;3.95;;;10.80;99.90;;;;;;5053636;28;20292;-61
2022/09/27 07:17:57;;;;;;;6.97;4.78;;;10.80;99.90;;;;;;5054863;28;20182;-64
2022/09/27 07:20:23;;;;;;;9.80;4.82;;;10.90;99.90;;;;;;5055096;28;20729;-61
2022/09/27 07:22:49;;;;;;;6.38;4.32;;;11.00;99.90;;;;;;5054929;28;20242;-61
2022/09/27 07:25:15;;;;;;;6.00;4.10;;;11.20;99.90;;;;;;5054692;28;20199;-61
2022/09/27 07:27:40;;;;;;;6.90;4.22;;;11.30;99.90;;;;;;5054756;28;20183;-61
2022/09/27 07:30:08;;;;;;;4.55;3.97;;;11.40;99.90;;;;;;5053549;28;20174;-61
2022/09/27 07:32:35;;;;;;;4.53;3.78;;;11.40;99.90;;;;;;5054842;28;20183;-61
2022/09/27 07:35:02;;;;;;;4.82;3.35;;;11.30;99.90;;;;;;5054762;28;20175;-61
2022/09/27 07:37:31;;;;;;;3.97;3.58;;;11.20;99.90;;;;;;5053688;28;20217;-61
2022/09/27 07:39:57;;;;;;;7.57;4.28;;;11.30;99.90;;;;;;5053469;28;20209;-61
2022/09/27 07:42:23;;;;;;;4.18;3.60;;;11.10;99.90;;;;;;5054489;28;20703;-61
2022/09/27 07:44:48;;;;;;;5.20;3.78;;;11.20;99.90;;;;;;5052912;28;20306;-61
2022/09/27 07:47:14;;;;;;;7.18;4.20;;;11.00;99.90;;;;;;5053296;28;20187;-61
2022/09/27 07:49:40;;;;;;;4.35;3.95;;;11.10;99.90;;;;;;5036608;28;20203;-62
2022/09/27 07:52:05;;;;;;;6.47;4.25;;;11.00;99.90;;;;;;5054168;28;20172;-61
2022/09/27 07:54:31;;;;;;;6.97;4.43;;;11.00;99.90;;;;;;5054261;28;20179;-60
2022/09/27 07:56:57;;;;;;;6.30;4.70;;;11.00;99.90;;;;;;5053037;28;20539;-61
2022/09/27 07:59:22;;;;;;;7.43;4.93;;;11.00;99.90;;;;;;5052910;28;20254;-62
2022/09/27 08:01:48;;;;;;;7.82;4.53;;;11.00;99.90;;;;;;5054191;28;20179;-62
2022/09/27 08:04:13;;;;;;;5.90;4.45;;;10.80;99.90;;;;;;5054080;28;20199;-61
2022/09/27 08:06:39;;;;;;;5.47;4.60;;;10.70;99.90;;;;;;5052941;28;20246;-61
2022/09/27 08:09:08;;;;;;;5.43;4.20;;;10.70;99.90;;;;;;5053919;28;20178;-61
2022/09/27 08:11:36;;;;;;;7.97;4.22;;;10.90;99.90;;;;;;5053969;28;20172;-62
2022/09/27 08:14:03;;;;;;;7.25;3.97;;;10.90;99.90;;;;;;5051913;28;20179;-61
2022/09/27 08:16:29;;;;;;;6.65;4.28;;;10.90;99.90;;;;;;5052963;28;20274;-61
2022/09/27 08:18:55;;;;;;;4.97;3.97;;;11.10;99.90;;;;;;5052797;28;20221;-62
2022/09/27 08:21:20;;;;;;;5.05;3.58;;;11.10;99.90;;;;;;5053814;28;20171;-61
2022/09/27 08:23:46;;;;;;;3.83;3.50;;;11.00;99.90;;;;;;5053797;28;20655;-62
2022/09/27 08:26:11;;;;;;;5.22;3.30;;;10.90;99.90;;;;;;5053628;28;20207;-62
2022/09/27 08:28:37;;;;;;;5.38;2.95;;;10.80;99.90;;;;;;5053496;28;20179;-61
2022/09/27 08:31:03;;;;;;;5.22;3.65;;;10.80;99.90;;;;;;5052382;28;20183;-62
2022/09/27 08:33:29;;;;;;;4.70;3.10;;;10.80;99.90;;;;;;5053605;28;20207;-62
2022/09/27 08:35:54;;;;;;;5.07;3.15;;;10.70;99.90;;;;;;5052445;28;20214;-62
2022/09/27 08:38:21;;;;;;;7.50;4.03;;;10.90;99.90;;;;;;5053493;28;20625;-61
2022/09/27 08:41:23;;;;;;;6.07;3.55;;;11.00;99.90;;;;;;5053407;28;20672;-61
2022/09/27 08:44:17;;;;;;;5.28;3.30;;;11.00;99.90;;;;;;5053769;28;20178;-62
2022/09/27 08:47:11;;;;;;;4.05;3.28;;;11.00;99.90;;;;;;5051075;28;20234;-60
2022/09/27 08:50:08;;;;;;;5.45;3.30;;;11.10;99.90;;;;;;5053617;28;20478;-61
2022/09/27 08:52:41;;;;;;;5.40;3.03;;;10.90;99.90;;;;;;5053380;28;20195;-62
2022/09/27 08:55:27;;;;;;;3.78;3.10;;;11.00;99.90;;;;;;5053264;28;20183;-62
2022/09/27 08:57:56;;;;;;;5.53;3.05;;;10.90;99.90;;;;;;5051986;28;20254;-61
2022/09/27 09:00:22;;;;;;;5.30;3.45;;;11.00;99.90;;;;;;5052121;28;20182;-61
2022/09/27 09:02:48;;;;;;;4.45;3.30;;;11.10;99.90;;;;;;5053318;28;20183;-62
2022/09/27 09:05:22;;;;;;;4.68;3.83;;;11.10;99.90;;;;;;5053110;28;20203;-62
2022/09/27 09:08:20;;;;;;;4.75;3.78;;;11.20;99.90;;;;;;5051913;28;20659;-61
2022/09/27 09:14:16;;;;;;;5.38;3.88;;;11.60;99.90;;;;;;5053068;28;20592;-61
2022/09/27 09:17:03;;;;;;;6.22;3.50;;;11.80;99.90;;;;;;5053033;28;20190;-61
2022/09/27 09:19:38;;;;;;;8.30;4.00;;;11.80;99.90;;;;;;5053024;28;20175;-62
2022/09/27 09:22:17;;;;;;;4.28;3.25;;;11.90;99.90;;;;;;5051873;28;20194;-62
2022/09/27 09:24:56;;;;;;;6.55;3.70;;;11.90;99.90;;;;;;5053232;28;20260;-61
2022/09/27 09:27:36;;;;;;;4.43;3.13;;;12.20;99.90;;;;;;5057013;28;20186;-62
2022/09/27 09:30:14;;;;;;;6.80;3.38;;;12.30;99.90;;;;;;5057158;28;20167;-61
2022/09/27 09:32:55;;;;;;;4.18;3.50;;;12.50;99.90;;;;;;5057023;28;20697;-62
2022/09/27 09:35:25;;;;;;;6.18;3.40;;;12.60;99.90;;;;;;5055540;28;20175;-61
2022/09/27 09:38:02;;;;;;;5.88;2.97;;;12.70;99.90;;;;;;5057033;28;20702;-62
2022/09/27 09:40:37;;;;;;;6.13;3.10;;;12.90;99.90;;;;;;5056849;28;20654;-61
2022/09/27 09:43:20;;;;;;;5.82;3.05;;;13.10;99.90;;;;;;5056852;28;20167;-62
2022/09/27 09:45:54;;;;;;;4.40;2.42;;;13.10;99.90;;;;;;5057007;28;20261;-61
2022/09/27 09:48:48;;;;;;;6.18;2.70;;;13.30;99.90;;;;;;5056682;28;20217;-60
2022/09/27 09:51:21;;;;;;;4.90;2.83;;;13.40;99.90;;;;;;5056685;28;20178;-62
2022/09/27 09:54:03;;;;;;;7.72;2.38;;;13.50;99.90;;;;;;5056613;28;20237;-61
2022/09/27 09:56:44;;;;;;;5.28;2.60;;;13.50;99.90;;;;;;5056754;28;20171;-62
2022/09/27 09:59:25;;;;;;;4.47;2.42;;;13.50;99.90;;;;;;5056535;28;20175;-61
2022/09/27 10:01:55;;;;;;;4.97;2.15;;;13.60;99.90;;;;;;5056369;28;20629;-62
2022/09/27 10:04:25;;;;;;;5.07;2.03;;;13.60;99.90;;;;;;5056123;28;20676;-61
2022/09/27 10:06:52;;;;;;;5.90;2.50;;;13.40;99.90;;;;;;5056551;28;20178;-62
2022/09/27 10:09:23;;;;;;;6.22;2.03;;;13.40;99.90;;;;;;5055198;28;20190;-62
2022/09/27 10:11:48;;;;;;;8.25;2.30;;;13.40;99.90;;;;;;5056522;28;20246;-62
2022/09/27 10:14:16;;;;;;;6.30;2.50;;;13.40;99.90;;;;;;5054949;28;20283;-62
2022/09/27 10:16:47;;;;;;;5.55;2.40;;;13.20;99.90;;;;;;5056144;28;20190;-62
2022/09/27 10:19:17;;;;;;;6.10;2.03;;;13.20;99.90;;;;;;5056085;28;20180;-61
2022/09/27 10:21:47;;;;;;;8.95;2.55;;;13.20;99.90;;;;;;5056117;28;20167;-62
2022/09/27 10:24:15;;;;;;;7.53;2.70;;;13.40;99.90;;;;;;5055973;28;20168;-62
2022/09/27 10:26:43;;;;;;;7.50;1.80;;;13.50;99.90;;;;;;5055989;28;20178;-62
2022/09/27 10:29:19;;;;;;;5.95;1.77;;;13.60;99.90;;;;;;5055834;28;20214;-62
2022/09/27 10:31:47;;;;;;;5.40;1.80;;;13.70;99.90;;;;;;5056115;28;20625;-61
2022/09/27 10:34:40;;;;;;;4.97;1.67;;;13.80;99.90;;;;;;5055829;28;20551;-62
2022/09/27 10:37:05;;;;;;;3.15;1.30;;;13.70;99.90;;;;;;5052122;28;20183;-62
2022/09/27 10:39:31;;;;;;;5.88;1.60;;;13.40;99.90;;;;;;5054541;28;20182;-61
2022/09/27 10:41:57;;;;;;;6.30;1.95;;;13.40;99.90;;;;;;5054327;28;20252;-61
2022/09/27 10:44:31;;;;;;;3.15;1.42;;;13.30;99.90;;;;;;5054440;28;20207;-62
2022/09/27 10:47:10;;;;;;;5.53;1.30;;;13.40;99.90;;;;;;5055880;28;20171;-61
2022/09/27 10:49:40;;;;;;;2.63;1.10;;;13.40;99.90;;;;;;5054404;28;20197;-62
2022/09/27 10:52:21;;;;;;;4.53;1.65;;;13.50;99.90;;;;;;5054281;28;20221;-62
2022/09/27 10:54:57;;;;;;;3.45;1.40;;;13.60;99.90;;;;;;5055655;28;20310;-61
2022/09/27 10:57:26;;;;;;;4.43;1.58;;;13.60;99.90;;;;;;5055487;28;20173;-62
2022/09/27 10:59:56;;;;;;;4.68;1.50;;;13.70;99.90;;;;;;5055352;28;20266;-61
2022/09/27 11:02:25;;;;;;;4.65;1.70;;;13.80;99.90;;;;;;5055286;28;20167;-61
2022/09/27 11:05:11;;;;;;;3.70;1.38;;;13.80;99.90;;;;;;5055067;28;20199;-61
2022/09/27 11:07:51;;;;;;;4.10;1.42;;;13.80;99.90;;;;;;5055359;28;20203;-61
2022/09/27 11:10:31;;;;;;;4.13;1.27;;;13.80;99.90;;;;;;5055292;28;20206;-61
2022/09/27 11:13:16;;;;;;;3.00;1.45;;;13.80;99.90;;;;;;5055231;28;20254;-61
2022/09/27 11:15:45;;;;;;;6.28;1.17;;;13.60;99.90;;;;;;5055327;28;20203;-61
2022/09/27 11:18:39;;;;;;;3.28;1.63;;;13.40;99.90;;;;;;5054970;28;20237;-61
2022/09/27 11:21:17;;;;;;;4.78;2.00;;;13.40;99.90;;;;;;5044643;28;20265;-61
2022/09/27 11:23:43;;;;;;;5.53;2.17;;;13.80;99.90;;;;;;5055140;28;20316;-61
2022/09/27 11:26:35;;;;;;;6.50;2.80;;;14.00;99.90;;;;;;5055012;28;20290;-62
2022/09/27 11:29:33;;;;;;;5.45;2.38;;;14.30;99.90;;;;;;5054945;28;20168;-61
2022/09/27 11:31:58;;;;;;;4.93;1.60;;;14.70;99.90;;;;;;5054682;28;20671;-61
2022/09/27 11:34:39;;;;;;;4.95;1.73;;;14.40;99.90;;;;;;5054895;28;20202;-61
2022/09/27 11:37:25;;;;;;;3.92;0.90;;;14.10;99.90;;;;;;5054805;28;20262;-61
2022/09/27 11:40:01;;;;;;;3.97;1.17;;;13.60;99.90;;;;;;5054242;28;20187;-61
2022/09/27 11:42:58;;;;;;;1.20;0.80;;;13.00;99.90;;;;;;5054600;28;20178;-61
2022/09/27 11:45:55;;;;;;;3.53;1.15;;;12.70;99.90;;;;;;5054334;28;20207;-61
2022/09/27 11:48:45;;;;;;;2.63;1.02;;;12.50;99.90;;;;;;5052408;28;20179;-61
2022/09/27 11:51:43;;;;;;;2.08;0.98;;;12.80;99.90;;;;;;5054622;28;20250;-62
2022/09/27 11:54:35;;;;;;;2.85;1.20;;;13.10;99.90;;;;;;5054589;28;20163;-61
2022/09/27 11:57:19;;;;;;;3.38;1.40;;;13.30;99.90;;;;;;5054291;28;20181;-61
2022/09/27 11:59:50;;;;;;;2.60;1.67;;;13.40;99.90;;;;;;5054282;28;20167;-61
2022/09/27 12:02:54;;;;;;;3.80;1.55;;;13.50;99.90;;;;;;5054322;28;20179;-62
2022/09/27 12:05:55;;;;;;;3.72;1.85;;;13.40;99.90;;;;;;5053817;28;20207;-61
2022/09/27 12:08:57;;;;;;;5.90;2.40;;;13.30;99.90;;;;;;5054158;28;20617;-61
2022/09/27 12:11:40;;;;;;;4.55;2.25;;;13.50;99.90;;;;;;5051050;28;20190;-61
2022/09/27 12:14:05;;;;;;;3.75;2.28;;;13.70;99.90;;;;;;5053898;28;20220;-62
2022/09/27 12:16:33;;;;;;;3.75;2.15;;;14.00;99.90;;;;;;5054000;28;20270;-61
2022/09/27 12:19:01;;;;;;;4.38;1.90;;;14.10;99.90;;;;;;5053933;28;20693;-61
2022/09/27 12:21:31;;;;;;;6.90;2.03;;;14.30;99.90;;;;;;5052568;28;20179;-61
2022/09/27 12:23:58;;;;;;;5.82;2.00;;;14.40;99.90;;;;;;5053693;28;20178;-61
2022/09/27 12:26:30;;;;;;;3.80;1.70;;;14.50;99.90;;;;;;5052621;28;20357;-61
2022/09/27 12:29:01;;;;;;;4.15;1.50;;;14.60;99.90;;;;;;5053885;28;20179;-61
2022/09/27 12:31:34;;;;;;;4.15;1.80;;;15.00;99.90;;;;;;5054028;28;20177;-61
2022/09/27 12:34:15;;;;;;;4.65;1.63;;;14.90;99.90;;;;;;5054057;28;20164;-61
2022/09/27 12:36:48;;;;;;;7.15;1.40;;;15.00;99.90;;;;;;5053991;28;20163;-62
2022/09/27 12:39:48;;;;;;;5.05;1.52;;;14.70;99.90;;;;;;5054135;28;20175;-61
2022/09/27 12:42:23;;;;;;;3.30;1.52;;;14.50;99.90;;;;;;5053638;28;20171;-62
2022/09/27 12:44:51;;;;;;;5.57;1.80;;;14.30;99.90;;;;;;5053270;28;20285;-61
2022/09/27 12:47:41;;;;;;;3.50;1.45;;;14.00;99.90;;;;;;5053606;28;20175;-62
2022/09/27 12:50:16;;;;;;;4.63;1.35;;;14.00;99.90;;;;;;5053370;28;20216;-61
2022/09/27 12:52:48;;;;;;;5.22;1.60;;;14.10;99.90;;;;;;5053357;28;20163;-61
2022/09/27 12:55:45;;;;;;;8.13;1.85;;;14.40;99.90;;;;;;5053244;28;20175;-62
2022/09/27 12:58:14;;;;;;;6.25;2.13;;;14.70;99.90;;;;;;5044364;28;20240;-61
2022/09/27 13:00:57;;;;;;;3.33;1.48;;;15.10;99.90;;;;;;5053200;28;20663;-61
2022/09/27 13:03:39;;;;;;;6.15;1.70;;;15.40;99.90;;;;;;5053249;28;20216;-61
2022/09/27 13:06:17;;;;;;;3.45;1.40;;;15.60;99.90;;;;;;5053450;28;20561;-61
2022/09/27 13:09:09;;;;;;;6.00;1.55;;;15.50;99.90;;;;;;5053544;28;20175;-60
2022/09/27 13:12:00;;;;;;;6.38;1.95;;;15.30;99.90;;;;;;5053246;28;20205;-61
2022/09/27 13:14:30;;;;;;;7.00;2.22;;;15.10;99.90;;;;;;5053183;28;20198;-61
2022/09/27 13:16:56;;;;;;;3.97;1.70;;;14.70;99.90;;;;;;5053254;28;20292;-61
2022/09/27 13:19:42;;;;;;;5.53;1.88;;;14.40;99.90;;;;;;5052021;28;20207;-61
2022/09/27 13:22:28;;;;;;;6.97;1.67;;;14.10;99.90;;;;;;5052913;28;20175;-61
2022/09/27 13:24:54;;;;;;;4.45;1.50;;;13.90;99.90;;;;;;5052897;28;20280;-61
2022/09/27 13:27:29;;;;;;;7.13;1.73;;;13.80;99.90;;;;;;5051951;28;20171;-61